Accueil
METAR-TAF:

METAR-TAF

Aéroports :

Aéroport de La Rochelle - île de Ré

La Rochelle, France

latitude: 46-10-45N, longitude: 1-11-43W, altitude: 23 m

Observation

Le bulletin a été fait il y a 32 minutes, à 19:30 UTC
Vent 5 kt de nord/nord-est
Température 14°C
Humidité 67%
Pression 1028 hPa
Visibilité 10 km ou plus
pas de nuages en-dessous de 1500 mètres et pas de cumulonimbus.

METAR: LFBH 061930Z AUTO 03005KT CAVOK 14/08 Q1028 NOSIG

Heure: 22:02 (20:02 UTC)

Prévision

Le bulletin a été fait il y a 3 heures et 2 minutes, à 17:00 UTC
Prévision valable du 06 à 18 UTC au 07 à 18 UTC
Vent 8 kt de nord-est
Visibilité 10 km ou plus
pas de nuages en-dessous de 1500 mètres et pas de cumulonimbus.
Evoluant progressivement
du 07 à 14 UTC au 07 à 16 UTC
Vent 10 kt de nord-ouest

TAF: LFBH 061700Z 0618/0718 04008KT CAVOK BECMG 0714/0716 32010KT

Observations et prévisions météorologiques de plus de 4000 aéroports (messages METAR et TAF).

Les stations disponibles sont représentées par des disques jaunes et rouges sur la carte.

Passer la souris dessus pour voir le nom de la station.

Cliquer dessus pour voir les observations et prévisions météorologiques.

Pour changer de carte: cliquez sur les boutons verts avec une croix noire pour zoomer, sur le bouton vert avec un tiret pour effectuer un zoom arrière, ou sur les flèches vertes pour les cartes adjacentes.


METAR-TAF: